createdAt,value
2018-10-11T00:01:58.197Z,17.05
2018-10-11T00:04:27.131Z,17.03
2018-10-11T00:06:56.024Z,16.97
2018-10-11T00:09:24.948Z,17.01
2018-10-11T00:11:53.815Z,16.98
2018-10-11T00:14:22.742Z,16.95
2018-10-11T00:16:51.610Z,16.94
2018-10-11T00:19:20.908Z,16.92
2018-10-11T00:21:49.797Z,16.96
2018-10-11T00:24:18.702Z,16.98
2018-10-11T00:26:47.708Z,17.05
2018-10-11T00:29:16.575Z,17.07
2018-10-11T00:31:45.464Z,17.07
2018-10-11T00:34:14.408Z,17.04
2018-10-11T00:36:43.405Z,16.99
2018-10-11T00:39:12.294Z,17.08
2018-10-11T00:41:41.191Z,17.05
2018-10-11T00:44:10.314Z,16.99
2018-10-11T00:46:39.217Z,17.01
2018-10-11T00:49:08.107Z,16.97
2018-10-11T00:51:37.010Z,16.91
2018-10-11T00:54:05.934Z,16.89
2018-10-11T00:56:34.830Z,16.88
2018-10-11T00:59:03.771Z,16.86
2018-10-11T01:01:32.682Z,16.80
2018-10-11T01:04:01.602Z,16.80
2018-10-11T01:06:30.589Z,16.75
2018-10-11T01:09:00.143Z,16.71
2018-10-11T01:11:29.082Z,16.68
2018-10-11T01:13:57.979Z,16.65
2018-10-11T01:16:26.864Z,16.60
2018-10-11T01:18:55.757Z,16.58
2018-10-11T01:21:24.643Z,16.57
2018-10-11T01:23:53.632Z,16.54
2018-10-11T01:26:22.407Z,16.49
2018-10-11T01:28:52.424Z,16.50
2018-10-11T01:31:22.629Z,16.48
2018-10-11T01:33:52.136Z,16.50
2018-10-11T01:36:21.340Z,16.48
2018-10-11T01:38:53.467Z,16.47
2018-10-11T01:41:22.320Z,16.50
2018-10-11T01:43:51.227Z,16.49
2018-10-11T01:46:20.174Z,16.46
2018-10-11T01:48:49.141Z,16.45
2018-10-11T01:51:18.058Z,16.41
2018-10-11T01:53:46.939Z,16.31
2018-10-11T01:56:15.907Z,16.28
2018-10-11T01:58:44.814Z,16.22
2018-10-11T02:01:13.753Z,16.23
2018-10-11T02:03:42.639Z,16.20
2018-10-11T02:06:11.791Z,16.19
2018-10-11T02:08:40.688Z,16.18
2018-10-11T02:11:09.600Z,16.17
2018-10-11T02:13:38.543Z,16.13
2018-10-11T02:16:07.445Z,16.15
2018-10-11T02:18:36.371Z,16.08
2018-10-11T02:21:05.388Z,16.09
2018-10-11T02:23:34.307Z,16.04
2018-10-11T02:26:03.216Z,16.00
2018-10-11T02:28:37.715Z,16.07
2018-10-11T02:31:12.196Z,15.97
2018-10-11T02:33:41.132Z,15.96
2018-10-11T02:36:10.042Z,15.96
2018-10-11T02:38:38.968Z,15.95
2018-10-11T02:41:07.876Z,15.96
2018-10-11T02:43:36.806Z,16.01
2018-10-11T02:46:05.725Z,15.98
2018-10-11T02:48:34.645Z,15.92
2018-10-11T02:51:03.530Z,15.94
2018-10-11T02:53:32.425Z,15.94
2018-10-11T02:56:01.370Z,15.86
2018-10-11T02:58:41.546Z,15.87
2018-10-11T03:01:10.460Z,15.86
2018-10-11T03:03:39.393Z,15.87
2018-10-11T03:06:08.329Z,15.78
2018-10-11T03:08:37.312Z,15.79
2018-10-11T03:11:06.286Z,15.76
2018-10-11T03:13:35.184Z,15.79
2018-10-11T03:16:04.104Z,15.79
2018-10-11T03:18:32.984Z,15.89
2018-10-11T03:21:01.894Z,15.81
2018-10-11T03:23:30.796Z,15.80
2018-10-11T03:25:59.824Z,15.85
2018-10-11T03:28:28.722Z,15.88
2018-10-11T03:30:57.616Z,15.88
2018-10-11T03:33:26.510Z,15.82
2018-10-11T03:35:55.406Z,15.90
2018-10-11T03:38:24.330Z,15.88
2018-10-11T03:40:53.267Z,15.87
2018-10-11T03:43:22.194Z,15.91
2018-10-11T03:45:51.133Z,15.91
2018-10-11T03:48:20.035Z,15.92
2018-10-11T03:50:54.680Z,15.89
2018-10-11T03:53:23.638Z,15.93
2018-10-11T03:55:52.530Z,15.93
2018-10-11T03:58:21.434Z,15.95
2018-10-11T04:00:50.350Z,16.03
2018-10-11T04:03:19.310Z,15.91
2018-10-11T04:05:48.284Z,15.91
2018-10-11T04:08:17.171Z,15.95
2018-10-11T04:10:46.112Z,16.06
2018-10-11T04:13:14.967Z,15.98
2018-10-11T04:15:44.124Z,15.96
2018-10-11T04:18:12.983Z,16.01
2018-10-11T04:20:41.912Z,16.06
2018-10-11T04:23:14.995Z,16.09
2018-10-11T04:25:43.903Z,16.12
2018-10-11T04:28:14.944Z,16.18
2018-10-11T04:30:43.899Z,16.23
2018-10-11T04:33:12.809Z,16.24
2018-10-11T04:35:41.728Z,16.23
2018-10-11T04:38:11.359Z,16.21
2018-10-11T04:40:41.055Z,16.22
2018-10-11T04:43:10.092Z,16.24
2018-10-11T04:45:39.067Z,16.24
2018-10-11T04:48:08.143Z,16.33
2018-10-11T04:50:37.116Z,16.26
2018-10-11T04:53:06.007Z,16.31
2018-10-11T04:55:34.934Z,16.36
2018-10-11T04:58:03.839Z,16.48
2018-10-11T05:00:32.747Z,16.66
2018-10-11T05:03:01.683Z,16.66
2018-10-11T05:05:30.670Z,16.76
2018-10-11T05:07:59.523Z,16.94
2018-10-11T05:10:28.550Z,17.12
2018-10-11T05:12:57.478Z,17.14
2018-10-11T05:15:27.067Z,17.09
2018-10-11T05:17:56.026Z,17.11
2018-10-11T05:20:24.973Z,17.26
2018-10-11T05:22:53.912Z,17.49
2018-10-11T05:25:22.985Z,17.48
2018-10-11T05:27:51.897Z,17.43
2018-10-11T05:30:20.855Z,17.45
2018-10-11T05:32:49.769Z,17.42
2018-10-11T05:35:18.644Z,17.83
2018-10-11T05:37:47.534Z,18.16
2018-10-11T05:40:16.454Z,18.15
2018-10-11T05:42:45.455Z,18.30
2018-10-11T05:45:17.933Z,18.46
2018-10-11T05:47:47.331Z,18.51
2018-10-11T05:50:16.686Z,18.57
2018-10-11T05:52:46.049Z,18.45
2018-10-11T05:55:15.347Z,18.44
2018-10-11T05:57:44.384Z,18.44
2018-10-11T06:00:13.636Z,18.63
2018-10-11T06:02:54.537Z,18.54
2018-10-11T06:05:23.471Z,18.56
2018-10-11T06:07:52.484Z,18.44
2018-10-11T06:10:28.463Z,18.41
2018-10-11T06:12:57.385Z,18.53
2018-10-11T06:15:26.301Z,18.49
2018-10-11T06:17:55.216Z,18.71
2018-10-11T06:20:24.093Z,18.64
2018-10-11T06:22:53.011Z,18.71
2018-10-11T06:25:21.946Z,18.77
2018-10-11T06:27:50.855Z,18.76
2018-10-11T06:30:20.014Z,18.78
2018-10-11T06:32:48.921Z,18.74
2018-10-11T06:35:17.879Z,18.77
2018-10-11T06:37:46.831Z,18.68
2018-10-11T06:40:15.711Z,18.59
2018-10-11T06:42:44.958Z,18.57
2018-10-11T06:45:15.316Z,18.53
2018-10-11T06:47:46.437Z,18.54
2018-10-11T06:50:15.461Z,18.48
2018-10-11T06:52:44.331Z,18.42
2018-10-11T06:55:13.282Z,18.42
2018-10-11T06:57:42.323Z,18.46
2018-10-11T07:00:11.205Z,18.46
2018-10-11T07:02:40.125Z,18.44
2018-10-11T07:05:08.686Z,18.43
2018-10-11T07:07:37.789Z,18.42
2018-10-11T07:10:06.807Z,18.55
2018-10-11T07:12:35.677Z,18.54
2018-10-11T07:15:05.006Z,18.48
2018-10-11T07:17:34.205Z,18.41
2018-10-11T07:20:03.530Z,18.39
2018-10-11T07:22:33.104Z,18.36
2018-10-11T07:25:02.432Z,18.32
2018-10-11T07:27:31.687Z,18.26
2018-10-11T07:30:00.973Z,18.28
2018-10-11T07:32:30.343Z,18.28
2018-10-11T07:34:59.777Z,18.29
2018-10-11T07:37:29.070Z,18.26
2018-10-11T07:39:58.522Z,18.23
2018-10-11T07:42:27.840Z,18.23
2018-10-11T07:44:57.070Z,18.21
2018-10-11T07:47:27.597Z,18.22
2018-10-11T07:49:56.840Z,18.23
2018-10-11T07:52:26.060Z,18.24
2018-10-11T07:54:55.238Z,18.22
2018-10-11T07:57:24.582Z,18.25
2018-10-11T07:59:53.890Z,18.20
2018-10-11T08:02:23.112Z,18.15
2018-10-11T08:04:52.412Z,18.14
2018-10-11T08:07:21.770Z,18.13
2018-10-11T08:09:50.874Z,18.16
2018-10-11T08:12:20.124Z,18.08
2018-10-11T08:14:49.448Z,18.09
2018-10-11T08:17:19.093Z,18.11
2018-10-11T08:19:48.186Z,18.12
2018-10-11T08:22:18.554Z,18.06
2018-10-11T08:24:47.858Z,18.03
2018-10-11T08:27:18.326Z,18.00
2018-10-11T08:29:47.562Z,18.03
2018-10-11T08:32:17.043Z,17.98
2018-10-11T08:34:46.400Z,18.00
2018-10-11T08:37:15.881Z,17.94
2018-10-11T08:39:45.188Z,17.99
2018-10-11T08:42:15.465Z,17.96
2018-10-11T08:44:44.727Z,17.95
2018-10-11T08:47:14.134Z,18.01
2018-10-11T08:49:43.464Z,18.07
2018-10-11T08:52:14.865Z,18.09
2018-10-11T08:54:47.597Z,18.07
2018-10-11T08:57:16.926Z,18.10
2018-10-11T08:59:46.423Z,18.07
2018-10-11T09:02:15.655Z,18.08
2018-10-11T09:04:45.058Z,18.08
2018-10-11T09:07:15.010Z,18.13
2018-10-11T09:09:45.451Z,18.16
2018-10-11T09:12:14.418Z,18.14
2018-10-11T09:14:43.447Z,18.14
2018-10-11T09:17:12.366Z,18.14
2018-10-11T09:19:41.252Z,18.11
2018-10-11T09:22:10.216Z,18.13
2018-10-11T09:24:39.164Z,18.16
2018-10-11T09:27:08.052Z,18.17
2018-10-11T09:29:38.002Z,18.18
2018-10-11T09:32:06.990Z,18.21
2018-10-11T09:34:35.942Z,18.23
2018-10-11T09:37:04.856Z,18.24
2018-10-11T09:39:33.769Z,18.29
2018-10-11T09:42:02.637Z,18.30
2018-10-11T09:44:31.516Z,18.30
2018-10-11T09:47:00.387Z,18.31
2018-10-11T09:49:29.311Z,18.29
2018-10-11T09:51:58.270Z,18.36
2018-10-11T09:54:27.252Z,18.34
2018-10-11T09:57:21.788Z,18.38
2018-10-11T09:59:50.724Z,18.43
2018-10-11T10:02:19.956Z,18.47
2018-10-11T10:04:50.084Z,18.49
2018-10-11T10:07:19.027Z,18.59
2018-10-11T10:09:48.481Z,18.72
2018-10-11T10:12:17.826Z,18.80
2018-10-11T10:14:47.444Z,18.85
2018-10-11T10:17:16.598Z,18.96
2018-10-11T10:19:46.784Z,18.94
2018-10-11T10:22:18.434Z,18.97
2018-10-11T10:24:47.287Z,19.04
2018-10-11T10:27:16.418Z,19.08
2018-10-11T10:29:45.164Z,19.22
2018-10-11T10:32:14.072Z,19.24
2018-10-11T10:34:42.963Z,19.37
2018-10-11T10:37:11.912Z,19.36
2018-10-11T10:39:40.814Z,19.41
2018-10-11T10:42:09.728Z,19.44
2018-10-11T10:44:38.628Z,19.46
2018-10-11T10:47:07.555Z,19.42
2018-10-11T10:49:36.496Z,19.57
2018-10-11T10:52:05.380Z,19.56
2018-10-11T10:54:35.376Z,19.60
2018-10-11T10:57:04.851Z,19.59
2018-10-11T10:59:33.741Z,19.63
2018-10-11T11:02:02.728Z,19.64
2018-10-11T11:04:31.670Z,19.68
2018-10-11T11:07:00.562Z,19.75
2018-10-11T11:09:29.439Z,19.78
2018-10-11T11:11:58.343Z,19.89
2018-10-11T11:14:32.621Z,19.86
2018-10-11T11:17:03.648Z,19.93
2018-10-11T11:19:38.656Z,19.95
2018-10-11T11:22:07.669Z,19.97
2018-10-11T11:24:36.501Z,19.95
2018-10-11T11:27:05.421Z,19.98
2018-10-11T11:29:34.292Z,19.86
2018-10-11T11:32:03.158Z,19.90
2018-10-11T11:34:32.081Z,19.88
2018-10-11T11:37:01.052Z,19.87
2018-10-11T11:39:31.071Z,19.96
2018-10-11T11:42:02.039Z,19.98
2018-10-11T11:44:30.992Z,20.08
2018-10-11T11:46:59.893Z,20.13
2018-10-11T11:49:28.869Z,20.26
2018-10-11T11:51:57.803Z,20.28
2018-10-11T11:54:32.159Z,20.33
2018-10-11T11:57:01.225Z,20.35
2018-10-11T11:59:30.133Z,20.31
2018-10-11T12:01:59.216Z,20.39
2018-10-11T12:04:28.116Z,20.49
2018-10-11T12:06:57.063Z,20.74
2018-10-11T12:09:26.046Z,20.75
2018-10-11T12:11:55.033Z,20.72
2018-10-11T12:14:23.960Z,20.65
2018-10-11T12:16:52.879Z,20.62
2018-10-11T12:19:21.801Z,20.80
2018-10-11T12:21:50.691Z,20.82
2018-10-11T12:24:19.666Z,21.07
2018-10-11T12:26:48.674Z,21.08
2018-10-11T12:29:17.752Z,21.19
2018-10-11T12:31:46.679Z,21.13
2018-10-11T12:34:15.642Z,21.15
2018-10-11T12:36:44.540Z,21.13
2018-10-11T12:39:13.436Z,21.22
2018-10-11T12:41:42.338Z,21.26
2018-10-11T12:44:11.395Z,21.20
2018-10-11T12:46:42.656Z,21.21
2018-10-11T12:49:09.310Z,21.28
2018-10-11T12:51:38.202Z,21.36
2018-10-11T12:54:07.560Z,21.24
2018-10-11T12:56:36.551Z,21.52
2018-10-11T12:59:05.474Z,21.47
2018-10-11T13:01:34.440Z,21.44
2018-10-11T13:04:03.342Z,21.40
2018-10-11T13:06:32.284Z,21.49
2018-10-11T13:09:01.296Z,21.67
2018-10-11T13:11:30.186Z,21.61
2018-10-11T13:13:59.142Z,21.78
2018-10-11T13:16:34.419Z,21.89
2018-10-11T13:19:03.448Z,21.92
2018-10-11T13:21:32.355Z,21.84
2018-10-11T13:24:01.296Z,21.89
2018-10-11T13:26:31.262Z,22.11
2018-10-11T13:29:00.245Z,22.14
2018-10-11T13:31:30.085Z,22.21
2018-10-11T13:33:59.018Z,22.03
2018-10-11T13:36:27.968Z,22.13
2018-10-11T13:38:56.869Z,22.12
2018-10-11T13:41:25.867Z,22.25
2018-10-11T13:43:54.740Z,22.22
2018-10-11T13:46:23.732Z,22.19
2018-10-11T13:48:52.800Z,22.19
2018-10-11T13:51:21.721Z,22.22
2018-10-11T13:53:55.479Z,22.21
2018-10-11T13:56:19.545Z,22.18
2018-10-11T13:58:48.463Z,22.29
2018-10-11T14:01:17.443Z,22.24
2018-10-11T14:03:46.745Z,22.38
2018-10-11T14:06:16.464Z,22.51
2018-10-11T14:08:45.401Z,22.42
2018-10-11T14:11:14.493Z,22.30
2018-10-11T14:13:43.503Z,22.37
2018-10-11T14:16:12.442Z,22.34
2018-10-11T14:18:41.348Z,22.37
2018-10-11T14:21:10.337Z,22.36
2018-10-11T14:23:39.368Z,22.32
2018-10-11T14:26:08.306Z,22.55
2018-10-11T14:28:37.204Z,22.56
2018-10-11T14:31:06.077Z,22.51
2018-10-11T14:33:35.128Z,22.42
2018-10-11T14:36:04.078Z,22.46
2018-10-11T14:38:33.048Z,22.51
2018-10-11T14:41:02.004Z,22.50
2018-10-11T14:43:30.976Z,22.56
2018-10-11T14:45:59.899Z,22.68
2018-10-11T14:48:28.804Z,22.53
2018-10-11T14:50:57.920Z,22.71
2018-10-11T14:53:26.782Z,22.58
2018-10-11T14:55:55.798Z,22.66
2018-10-11T14:58:30.182Z,22.76
2018-10-11T15:01:04.801Z,22.75
2018-10-11T15:03:33.734Z,22.64
2018-10-11T15:06:02.672Z,22.80
2018-10-11T15:08:31.598Z,22.82
2018-10-11T15:11:01.755Z,22.77
2018-10-11T15:13:30.644Z,22.90
2018-10-11T15:15:59.658Z,22.75
2018-10-11T15:18:28.448Z,22.75
2018-10-11T15:20:57.363Z,22.79
2018-10-11T15:23:26.342Z,22.93
2018-10-11T15:25:55.353Z,22.93
2018-10-11T15:28:24.401Z,22.85
2018-10-11T15:30:53.341Z,22.87
2018-10-11T15:33:22.220Z,22.69
2018-10-11T15:35:51.123Z,22.77
2018-10-11T15:38:20.030Z,22.79
2018-10-11T15:40:48.915Z,22.75
2018-10-11T15:43:17.951Z,22.70
2018-10-11T15:45:46.875Z,22.69
2018-10-11T15:48:15.772Z,22.63
2018-10-11T15:50:44.780Z,22.63
2018-10-11T15:53:13.745Z,22.65
2018-10-11T15:55:42.668Z,22.60
2018-10-11T15:58:11.572Z,22.65
2018-10-11T16:00:40.455Z,22.64
2018-10-11T16:03:09.339Z,22.59
2018-10-11T16:05:38.311Z,22.58
2018-10-11T16:08:07.229Z,22.55
2018-10-11T16:10:36.107Z,22.50
2018-10-11T16:13:05.040Z,22.40
2018-10-11T16:15:33.956Z,22.26
2018-10-11T16:18:02.876Z,22.26
2018-10-11T16:20:31.735Z,22.10
2018-10-11T16:23:00.599Z,22.05
2018-10-11T16:25:29.490Z,22.20
2018-10-11T16:27:58.361Z,22.18
2018-10-11T16:30:27.363Z,22.06
2018-10-11T16:32:56.236Z,21.98
2018-10-11T16:35:25.142Z,22.00
2018-10-11T16:37:54.097Z,22.02
2018-10-11T16:40:22.952Z,21.92
2018-10-11T16:42:51.917Z,21.87
2018-10-11T16:45:20.832Z,21.89
2018-10-11T16:47:49.799Z,21.94
2018-10-11T16:50:18.856Z,21.89
2018-10-11T16:52:47.861Z,21.81
2018-10-11T16:55:16.919Z,21.73
2018-10-11T16:57:45.966Z,21.63
2018-10-11T17:00:15.015Z,21.62
2018-10-11T17:02:44.052Z,21.60
2018-10-11T17:05:12.932Z,21.66
2018-10-11T17:07:41.801Z,21.79
2018-10-11T17:10:11.747Z,21.77
2018-10-11T17:12:40.694Z,21.71
2018-10-11T17:15:09.692Z,21.63
2018-10-11T17:17:39.650Z,21.75
2018-10-11T17:20:08.522Z,21.75
2018-10-11T17:22:37.761Z,21.73
2018-10-11T17:25:06.680Z,21.76
2018-10-11T17:27:35.698Z,21.77
2018-10-11T17:30:04.612Z,21.69
2018-10-11T17:32:33.497Z,21.64
2018-10-11T17:35:02.412Z,21.60
2018-10-11T17:37:31.300Z,21.58
2018-10-11T17:40:00.197Z,21.61
2018-10-11T17:42:29.236Z,21.55
2018-10-11T17:44:58.139Z,21.54
2018-10-11T17:47:27.067Z,21.53
2018-10-11T17:49:56.030Z,21.46
2018-10-11T17:52:24.963Z,21.40
2018-10-11T17:54:57.783Z,21.40
2018-10-11T17:57:27.269Z,21.30
2018-10-11T17:59:56.502Z,21.27
2018-10-11T18:02:25.404Z,21.29
2018-10-11T18:04:54.427Z,21.36
2018-10-11T18:07:29.589Z,21.38
2018-10-11T18:09:58.533Z,21.38
2018-10-11T18:12:27.399Z,21.33
2018-10-11T18:14:56.270Z,21.22
2018-10-11T18:17:25.182Z,21.13
2018-10-11T18:19:54.078Z,21.08
2018-10-11T18:22:23.008Z,21.03
2018-10-11T18:24:51.938Z,21.06
2018-10-11T18:27:21.064Z,21.04
2018-10-11T18:29:49.944Z,21.07
2018-10-11T18:32:19.038Z,21.01
2018-10-11T18:34:47.928Z,20.98
2018-10-11T18:37:16.838Z,20.96
2018-10-11T18:39:45.753Z,20.92
2018-10-11T18:42:14.633Z,20.88
2018-10-11T18:44:43.537Z,20.79
2018-10-11T18:47:12.414Z,20.78
2018-10-11T18:49:41.321Z,20.76
2018-10-11T18:52:10.369Z,20.75
2018-10-11T18:54:39.286Z,20.70
2018-10-11T18:57:08.246Z,20.73
2018-10-11T18:59:37.231Z,20.71
2018-10-11T19:02:06.107Z,20.74
2018-10-11T19:04:35.147Z,20.69
2018-10-11T19:07:04.048Z,20.70
2018-10-11T19:09:33.372Z,20.64
2018-10-11T19:12:02.279Z,20.66
2018-10-11T19:14:31.187Z,20.64
2018-10-11T19:17:01.179Z,20.76
2018-10-11T19:19:30.133Z,20.80
2018-10-11T19:22:02.578Z,20.74
2018-10-11T19:24:31.480Z,20.68
2018-10-11T19:27:00.874Z,20.65
2018-10-11T19:29:30.925Z,20.53
2018-10-11T19:32:00.812Z,20.71
2018-10-11T19:34:29.715Z,20.64
2018-10-11T19:36:59.507Z,20.62
2018-10-11T19:39:28.456Z,20.60
2018-10-11T19:41:57.292Z,20.56
2018-10-11T19:44:26.178Z,20.58
2018-10-11T19:46:55.116Z,20.60
2018-10-11T19:49:25.110Z,20.57
2018-10-11T19:51:54.050Z,20.50
2018-10-11T19:54:23.086Z,20.49
2018-10-11T19:56:52.380Z,20.45
2018-10-11T19:59:21.351Z,20.38
2018-10-11T20:01:50.330Z,20.36
2018-10-11T20:04:19.193Z,20.31
2018-10-11T20:06:48.206Z,20.28
2018-10-11T20:09:17.106Z,20.30
2018-10-11T20:11:46.046Z,20.20
2018-10-11T20:14:14.924Z,20.21
2018-10-11T20:16:43.910Z,20.15
2018-10-11T20:19:12.841Z,20.14
2018-10-11T20:21:41.774Z,20.11
2018-10-11T20:24:10.677Z,20.17
2018-10-11T20:26:39.695Z,20.21
2018-10-11T20:29:08.615Z,20.29
2018-10-11T20:31:37.500Z,20.32
2018-10-11T20:34:06.666Z,20.26
2018-10-11T20:36:35.656Z,20.22
2018-10-11T20:39:05.692Z,20.18
2018-10-11T20:41:34.576Z,20.14
2018-10-11T20:44:10.273Z,20.14
2018-10-11T20:46:39.186Z,20.16
2018-10-11T20:49:08.080Z,20.14
2018-10-11T20:51:37.123Z,20.17
2018-10-11T20:54:05.950Z,20.21
2018-10-11T20:56:34.847Z,20.25
2018-10-11T20:59:03.795Z,20.28
2018-10-11T21:01:32.699Z,20.33
2018-10-11T21:04:01.563Z,20.36
2018-10-11T21:06:30.500Z,20.38
2018-10-11T21:09:00.076Z,20.35
2018-10-11T21:11:28.987Z,20.33
2018-10-11T21:13:58.007Z,20.32
2018-10-11T21:16:26.870Z,20.39
2018-10-11T21:19:01.325Z,20.36
2018-10-11T21:21:30.558Z,20.31
2018-10-11T21:23:59.687Z,20.37
2018-10-11T21:26:28.848Z,20.31
2018-10-11T21:28:57.800Z,20.35
2018-10-11T21:31:26.757Z,20.31
2018-10-11T21:33:55.935Z,20.31
2018-10-11T21:36:24.919Z,20.28
2018-10-11T21:38:53.836Z,20.25
2018-10-11T21:41:22.786Z,20.32
2018-10-11T21:43:51.650Z,20.27
2018-10-11T21:46:20.767Z,20.26
2018-10-11T21:48:49.689Z,20.25
2018-10-11T21:51:18.636Z,20.26
2018-10-11T21:53:47.613Z,20.25
2018-10-11T21:56:16.600Z,20.21
2018-10-11T21:58:45.574Z,20.24
2018-10-11T22:01:21.434Z,20.18
2018-10-11T22:03:50.598Z,20.04
2018-10-11T22:06:19.558Z,20.05
2018-10-11T22:08:49.433Z,19.99
2018-10-11T22:11:18.394Z,20.00
2018-10-11T22:13:47.283Z,20.05
2018-10-11T22:16:16.255Z,20.07
2018-10-11T22:18:47.184Z,20.12
2018-10-11T22:21:16.154Z,20.06
2018-10-11T22:23:45.047Z,20.07
2018-10-11T22:26:13.968Z,20.03
2018-10-11T22:28:42.815Z,20.03
2018-10-11T22:31:13.143Z,20.07
2018-10-11T22:33:42.879Z,20.08
2018-10-11T22:36:12.892Z,20.10
2018-10-11T22:38:42.357Z,20.03
2018-10-11T22:41:12.090Z,20.08
2018-10-11T22:43:41.690Z,20.07
2018-10-11T22:46:10.966Z,20.06
2018-10-11T22:48:39.858Z,20.06
2018-10-11T22:51:09.873Z,19.98
2018-10-11T22:53:38.746Z,19.67
2018-10-11T22:56:07.651Z,19.22
2018-10-11T22:58:36.698Z,18.86
2018-10-11T23:01:05.736Z,18.63
2018-10-11T23:03:34.818Z,18.46
2018-10-11T23:06:03.767Z,18.41
2018-10-11T23:08:32.719Z,18.27
2018-10-11T23:11:01.688Z,18.28
2018-10-11T23:13:30.624Z,18.36
2018-10-11T23:15:59.526Z,18.07
2018-10-11T23:18:28.494Z,17.94
2018-10-11T23:20:57.411Z,17.90
2018-10-11T23:23:26.259Z,17.90
2018-10-11T23:25:55.110Z,17.86
2018-10-11T23:28:23.969Z,17.71
2018-10-11T23:30:52.908Z,17.65
2018-10-11T23:33:21.785Z,17.64
2018-10-11T23:35:50.703Z,17.77
2018-10-11T23:38:19.606Z,17.68
2018-10-11T23:40:48.557Z,17.72
2018-10-11T23:43:17.485Z,17.68
2018-10-11T23:45:46.373Z,17.80
2018-10-11T23:48:15.220Z,17.83
2018-10-11T23:50:44.110Z,17.96
2018-10-11T23:53:13.187Z,18.03
2018-10-11T23:55:42.018Z,18.05
2018-10-11T23:58:10.900Z,18.05
